Time;durP1;ratioP1;P1;durP2;ratioP2;P2;SDS_P1;SDS_P2;PMS_P1;PMS_P2;Temp;Humidity;BMP_temperature;BMP_pressure;BME280_temperature;BME280_humidity;BME280_pressure;Samples;Min_cycle;Max_cycle;Signal;HPM_P1;HPM_P2
2023/03/18 00:01:29;;;;;;;;;;;16.20;72.70;;;;;;5033775;28;19910;-87
2023/03/18 00:03:56;;;;;;;;;;;16.20;72.80;;;;;;5033144;28;20449;-87
2023/03/18 00:06:22;;;;;;;;;;;16.20;72.90;;;;;;5033957;28;19909;-87
2023/03/18 00:08:48;;;;;;;;;;;16.20;73.00;;;;;;5033233;28;19909;-87
2023/03/18 00:11:15;;;;;;;;;;;16.20;73.10;;;;;;5031149;28;20295;-87
2023/03/18 00:13:45;;;;;;;;;;;16.20;73.20;;;;;;5032148;28;20202;-87
2023/03/18 00:16:11;;;;;;;;;;;16.20;73.30;;;;;;5031665;28;19909;-87
2023/03/18 00:18:38;;;;;;;;;;;16.20;73.40;;;;;;5030358;28;20282;-88
2023/03/18 00:21:03;;;;;;;;;;;16.20;73.40;;;;;;5031007;28;19941;-87
2023/03/18 00:23:30;;;;;;;;;;;16.10;73.40;;;;;;5030718;28;20326;-87
2023/03/18 00:26:00;;;;;;;;;;;16.20;73.50;;;;;;5030813;28;19924;-87
2023/03/18 00:28:30;;;;;;;;;;;16.10;73.50;;;;;;5030260;28;19978;-87
2023/03/18 00:31:00;;;;;;;;;;;16.10;73.60;;;;;;5029856;28;19913;-87
2023/03/18 00:33:26;;;;;;;;;;;16.10;73.70;;;;;;5030961;28;19909;-87
2023/03/18 00:35:52;;;;;;;;;;;16.10;73.80;;;;;;5030168;28;19975;-87
2023/03/18 00:38:20;;;;;;;;;;;16.10;73.90;;;;;;5030543;28;20044;-87
2023/03/18 00:40:53;;;;;;;;;;;16.10;73.90;;;;;;5031138;28;20009;-87
2023/03/18 00:43:28;;;;;;;;;;;16.10;73.90;;;;;;5030375;28;20083;-87
2023/03/18 00:45:54;;;;;;;;;;;16.10;74.00;;;;;;5026609;28;19916;-87
2023/03/18 00:48:20;;;;;;;;;;;16.10;74.00;;;;;;5028163;28;20052;-87
2023/03/18 00:50:46;;;;;;;;;;;16.10;74.10;;;;;;5031120;28;20190;-87
2023/03/18 00:53:15;;;;;;;;;;;16.10;74.20;;;;;;5031908;28;19981;-87
2023/03/18 00:55:44;;;;;;;;;;;16.10;74.20;;;;;;5031265;28;20007;-87
2023/03/18 00:58:10;;;;;;;;;;;16.10;74.20;;;;;;5033291;28;19909;-87
2023/03/18 01:00:40;;;;;;;;;;;16.10;74.30;;;;;;5033625;28;20384;-87
2023/03/18 01:03:06;;;;;;;;;;;16.10;74.40;;;;;;5033594;28;19913;-87
2023/03/18 01:05:34;;;;;;;;;;;16.10;74.40;;;;;;5033247;28;20095;-87
2023/03/18 01:08:00;;;;;;;;;;;16.10;74.50;;;;;;5033097;28;19917;-87
2023/03/18 01:10:38;;;;;;;;;;;16.10;74.50;;;;;;5032942;28;19920;-87
2023/03/18 01:13:06;;;;;;;;;;;16.10;74.50;;;;;;5033056;28;20144;-87
2023/03/18 01:15:32;;;;;;;;;;;16.10;74.60;;;;;;5032512;28;19909;-87
2023/03/18 01:17:58;;;;;;;;;;;16.10;74.60;;;;;;5033269;28;19905;-87
2023/03/18 01:20:28;;;;;;;;;;;16.10;74.70;;;;;;5032060;28;19909;-87
2023/03/18 01:22:53;;;;;;;;;;;16.10;74.80;;;;;;5033503;28;19967;-87
2023/03/18 01:25:19;;;;;;;;;;;16.10;74.80;;;;;;5033811;28;19960;-87
2023/03/18 01:27:47;;;;;;;;;;;16.10;74.90;;;;;;5034205;28;19909;-87
2023/03/18 01:30:13;;;;;;;;;;;16.10;75.00;;;;;;5033733;28;20020;-87
2023/03/18 01:32:40;;;;;;;;;;;16.10;75.00;;;;;;5031977;28;20019;-87
2023/03/18 01:35:05;;;;;;;;;;;16.10;75.10;;;;;;5032830;28;19999;-87
2023/03/18 01:37:32;;;;;;;;;;;16.10;75.20;;;;;;5043434;28;19968;-88
2023/03/18 01:40:01;;;;;;;;;;;16.10;75.20;;;;;;5035477;28;19924;-87
2023/03/18 01:42:26;;;;;;;;;;;16.00;75.20;;;;;;5034669;28;19920;-87
2023/03/18 01:45:27;;;;;;;;;;;16.10;75.30;;;;;;5035959;28;19910;-87
2023/03/18 01:47:57;;;;;;;;;;;16.10;75.40;;;;;;4995744;28;19925;-87
2023/03/18 01:50:33;;;;;;;;;;;16.00;75.40;;;;;;5022732;28;19913;-87
2023/03/18 01:53:01;;;;;;;;;;;16.00;75.40;;;;;;5033667;28;19909;-87
2023/03/18 01:55:32;;;;;;;;;;;16.00;75.50;;;;;;5035983;28;19909;-87
2023/03/18 01:57:58;;;;;;;;;;;16.00;75.60;;;;;;5035809;28;20004;-87
2023/03/18 02:00:24;;;;;;;;;;;16.00;75.60;;;;;;5035571;28;20241;-87
2023/03/18 02:02:53;;;;;;;;;;;16.00;75.70;;;;;;5036050;28;19913;-87
2023/03/18 02:05:26;;;;;;;;;;;16.00;75.70;;;;;;5036524;28;19909;-87
2023/03/18 02:07:55;;;;;;;;;;;16.00;75.80;;;;;;5035068;28;19908;-87
2023/03/18 02:10:23;;;;;;;;;;;16.00;75.80;;;;;;5033066;28;19925;-87
2023/03/18 02:12:50;;;;;;;;;;;16.00;75.90;;;;;;5034485;28;20026;-87
2023/03/18 02:15:18;;;;;;;;;;;16.00;75.90;;;;;;5035491;28;20103;-87
2023/03/18 02:17:46;;;;;;;;;;;16.00;75.90;;;;;;5035743;28;19917;-87
2023/03/18 02:20:30;;;;;;;;;;;16.00;76.00;;;;;;5036456;28;20327;-87
2023/03/18 02:23:20;;;;;;;;;;;16.00;76.00;;;;;;5036805;28;19949;-88
2023/03/18 02:26:08;;;;;;;;;;;16.00;76.10;;;;;;5031940;28;20275;-87
2023/03/18 02:28:36;;;;;;;;;;;16.00;76.20;;;;;;5035528;28;19909;-88
2023/03/18 02:31:08;;;;;;;;;;;16.00;76.20;;;;;;5035274;28;20064;-87
2023/03/18 02:33:37;;;;;;;;;;;16.00;76.20;;;;;;5036375;28;19913;-87
2023/03/18 02:36:04;;;;;;;;;;;16.00;76.30;;;;;;5034747;28;19913;-87
2023/03/18 02:38:30;;;;;;;;;;;16.00;76.40;;;;;;5034479;28;19909;-87
2023/03/18 02:40:59;;;;;;;;;;;16.00;76.40;;;;;;5035699;28;19920;-87
2023/03/18 02:43:27;;;;;;;;;;;16.00;76.40;;;;;;5034911;28;20340;-87
2023/03/18 02:45:55;;;;;;;;;;;16.00;76.50;;;;;;5035246;28;19920;-87
2023/03/18 02:48:22;;;;;;;;;;;16.00;76.60;;;;;;5035796;28;19909;-87
2023/03/18 02:50:48;;;;;;;;;;;16.00;76.70;;;;;;5038234;28;20015;-87
2023/03/18 02:53:14;;;;;;;;;;;16.00;76.80;;;;;;5037482;28;19921;-88
2023/03/18 02:55:41;;;;;;;;;;;16.00;76.90;;;;;;5037032;28;19913;-87
2023/03/18 02:58:08;;;;;;;;;;;16.00;77.00;;;;;;5037463;28;20042;-87
2023/03/18 03:00:33;;;;;;;;;;;16.00;77.00;;;;;;5037104;28;19924;-87
2023/03/18 03:02:59;;;;;;;;;;;16.00;77.10;;;;;;5037670;28;19909;-87
2023/03/18 03:05:25;;;;;;;;;;;16.00;77.20;;;;;;5037578;28;19909;-87
2023/03/18 03:07:50;;;;;;;;;;;16.00;77.30;;;;;;5037414;28;19917;-87
2023/03/18 03:10:19;;;;;;;;;;;16.00;77.40;;;;;;5034901;28;19919;-87
2023/03/18 03:12:46;;;;;;;;;;;16.00;77.50;;;;;;5036739;28;19913;-87
2023/03/18 03:15:12;;;;;;;;;;;16.00;77.60;;;;;;5037663;28;19920;-87
2023/03/18 03:17:38;;;;;;;;;;;16.00;77.70;;;;;;5036668;28;20291;-87
2023/03/18 03:20:05;;;;;;;;;;;16.00;77.70;;;;;;5036858;28;19909;-87
2023/03/18 03:22:31;;;;;;;;;;;16.00;77.80;;;;;;5037554;28;19999;-87
2023/03/18 03:24:57;;;;;;;;;;;16.00;77.90;;;;;;5038098;28;19909;-87
2023/03/18 03:27:22;;;;;;;;;;;16.00;78.00;;;;;;5036536;28;19909;-87
2023/03/18 03:29:48;;;;;;;;;;;15.90;78.00;;;;;;5037317;28;19920;-87
2023/03/18 03:32:14;;;;;;;;;;;15.90;78.10;;;;;;5036703;28;19936;-87
2023/03/18 03:34:42;;;;;;;;;;;15.90;78.20;;;;;;5036916;28;19999;-87
2023/03/18 03:37:07;;;;;;;;;;;15.90;78.30;;;;;;5037270;28;19996;-87
2023/03/18 03:39:33;;;;;;;;;;;15.90;78.30;;;;;;5037463;28;20232;-87
2023/03/18 03:41:58;;;;;;;;;;;15.90;78.30;;;;;;5035501;28;19916;-87
2023/03/18 03:44:28;;;;;;;;;;;15.90;78.40;;;;;;5035691;28;19913;-88
2023/03/18 03:46:54;;;;;;;;;;;15.90;78.50;;;;;;5037091;28;19905;-87
2023/03/18 03:49:19;;;;;;;;;;;15.90;78.60;;;;;;5036536;28;19913;-87
2023/03/18 03:51:45;;;;;;;;;;;15.90;78.70;;;;;;5036889;28;20160;-87
2023/03/18 03:54:12;;;;;;;;;;;15.90;78.70;;;;;;5036407;28;19909;-87
2023/03/18 03:56:38;;;;;;;;;;;15.90;78.70;;;;;;5037157;28;20267;-88
2023/03/18 03:59:07;;;;;;;;;;;15.90;78.90;;;;;;5034612;28;19909;-87
2023/03/18 04:01:33;;;;;;;;;;;15.90;78.90;;;;;;5035888;28;20326;-87
2023/03/18 04:04:01;;;;;;;;;;;15.90;79.00;;;;;;5036396;28;19909;-87
2023/03/18 04:06:27;;;;;;;;;;;15.90;79.00;;;;;;5035311;28;19913;-87
2023/03/18 04:08:52;;;;;;;;;;;15.90;79.10;;;;;;5034491;28;19920;-87
2023/03/18 04:11:19;;;;;;;;;;;15.90;79.20;;;;;;5035349;28;19913;-87
2023/03/18 04:13:45;;;;;;;;;;;15.90;79.30;;;;;;5035842;28;19920;-88
2023/03/18 04:16:11;;;;;;;;;;;15.80;79.30;;;;;;5034405;28;20028;-87
2023/03/18 04:18:39;;;;;;;;;;;15.90;79.40;;;;;;5032836;28;19975;-87
2023/03/18 04:21:06;;;;;;;;;;;15.80;79.40;;;;;;5033376;28;19943;-87
2023/03/18 04:23:33;;;;;;;;;;;15.80;79.40;;;;;;5032156;28;19909;-87
2023/03/18 04:25:59;;;;;;;;;;;15.80;79.60;;;;;;5031715;28;20277;-87
2023/03/18 04:28:25;;;;;;;;;;;15.80;79.60;;;;;;5032432;28;19913;-87
2023/03/18 04:30:50;;;;;;;;;;;15.80;79.60;;;;;;5032850;28;19914;-87
2023/03/18 04:33:18;;;;;;;;;;;15.80;79.70;;;;;;5032382;28;19909;-87
2023/03/18 04:35:44;;;;;;;;;;;15.80;79.70;;;;;;5032850;28;19945;-87
2023/03/18 04:38:22;;;;;;;;;;;15.80;79.80;;;;;;5034580;28;19987;-87
2023/03/18 04:40:47;;;;;;;;;;;15.80;79.90;;;;;;5034318;28;19947;-87
2023/03/18 04:43:14;;;;;;;;;;;15.80;79.90;;;;;;5032840;28;19990;-87
2023/03/18 04:45:39;;;;;;;;;;;15.80;80.50;;;;;;5032144;28;20325;-87
2023/03/18 04:48:05;;;;;;;;;;;15.80;80.00;;;;;;5031786;28;20000;-87
2023/03/18 04:50:34;;;;;;;;;;;15.80;80.00;;;;;;5031577;28;19913;-87
2023/03/18 04:53:00;;;;;;;;;;;15.80;80.10;;;;;;5035159;28;19920;-87
2023/03/18 04:55:26;;;;;;;;;;;15.80;80.10;;;;;;5034478;28;19956;-87
2023/03/18 04:57:52;;;;;;;;;;;15.80;80.10;;;;;;5035145;28;19968;-87
2023/03/18 05:00:21;;;;;;;;;;;15.80;80.20;;;;;;5042659;28;20167;-87
2023/03/18 05:02:47;;;;;;;;;;;15.80;80.30;;;;;;5033580;28;20014;-87
2023/03/18 05:05:13;;;;;;;;;;;15.80;80.30;;;;;;5034326;28;19905;-87
2023/03/18 05:07:42;;;;;;;;;;;15.80;80.40;;;;;;5033630;28;19910;-87
2023/03/18 05:10:08;;;;;;;;;;;15.80;80.40;;;;;;5032139;28;19921;-88
2023/03/18 05:12:36;;;;;;;;;;;15.80;80.50;;;;;;5034958;28;20179;-87
2023/03/18 05:15:05;;;;;;;;;;;15.80;80.60;;;;;;5038200;28;20164;-87
2023/03/18 05:17:31;;;;;;;;;;;15.80;80.70;;;;;;5038925;28;19909;-87
2023/03/18 05:19:57;;;;;;;;;;;15.80;80.70;;;;;;5038575;28;19915;-86
2023/03/18 05:22:22;;;;;;;;;;;15.80;80.70;;;;;;5038002;28;20011;-87
2023/03/18 05:24:48;;;;;;;;;;;15.80;81.20;;;;;;5037070;28;19933;-87
2023/03/18 05:27:16;;;;;;;;;;;15.80;80.90;;;;;;5037804;28;19909;-87
2023/03/18 05:29:44;;;;;;;;;;;15.80;80.90;;;;;;5037476;28;19967;-87
2023/03/18 05:32:11;;;;;;;;;;;15.80;81.00;;;;;;5036158;28;20267;-87
2023/03/18 05:34:40;;;;;;;;;;;15.80;81.00;;;;;;5035081;28;19910;-86
2023/03/18 05:37:09;;;;;;;;;;;15.80;81.00;;;;;;5031957;28;20015;-87
2023/03/18 05:39:38;;;;;;;;;;;15.80;81.00;;;;;;5031524;28;19956;-87
2023/03/18 05:42:06;;;;;;;;;;;15.80;81.20;;;;;;5031673;28;20471;-87
2023/03/18 05:44:32;;;;;;;;;;;15.80;81.20;;;;;;5033459;28;19923;-87
2023/03/18 05:46:58;;;;;;;;;;;15.80;81.30;;;;;;5032882;28;19909;-87
2023/03/18 05:49:24;;;;;;;;;;;15.80;81.30;;;;;;5032495;28;20186;-87
2023/03/18 05:51:53;;;;;;;;;;;15.80;81.30;;;;;;5033370;28;19909;-87
2023/03/18 05:54:22;;;;;;;;;;;15.80;81.40;;;;;;5034412;28;20268;-87
2023/03/18 05:56:50;;;;;;;;;;;15.80;81.30;;;;;;5035080;28;19910;-87
2023/03/18 05:59:18;;;;;;;;;;;15.80;81.40;;;;;;5035867;28;19913;-87
2023/03/18 06:01:47;;;;;;;;;;;15.80;81.40;;;;;;5034540;28;19909;-87
2023/03/18 06:04:14;;;;;;;;;;;15.80;81.40;;;;;;5036368;28;19917;-87
2023/03/18 06:06:39;;;;;;;;;;;15.80;81.40;;;;;;5035802;28;20107;-87
2023/03/18 06:09:09;;;;;;;;;;;15.80;81.40;;;;;;5036846;28;19909;-87
2023/03/18 06:11:35;;;;;;;;;;;15.80;81.40;;;;;;5036073;28;20302;-87
2023/03/18 06:14:02;;;;;;;;;;;15.80;81.40;;;;;;5035624;28;19917;-87
2023/03/18 06:16:27;;;;;;;;;;;15.80;81.40;;;;;;5034161;28;19913;-87
2023/03/18 06:18:53;;;;;;;;;;;15.80;81.40;;;;;;5034413;28;19909;-87
2023/03/18 06:21:18;;;;;;;;;;;15.80;81.40;;;;;;5035260;28;20263;-87
2023/03/18 06:23:44;;;;;;;;;;;15.80;81.40;;;;;;5033935;28;19916;-87
2023/03/18 06:26:10;;;;;;;;;;;15.80;81.40;;;;;;5036510;28;19909;-87
2023/03/18 06:28:35;;;;;;;;;;;15.90;81.50;;;;;;5035658;28;19917;-87
2023/03/18 06:31:04;;;;;;;;;;;15.80;81.40;;;;;;5035947;28;19924;-87
2023/03/18 06:33:31;;;;;;;;;;;15.90;81.50;;;;;;5033361;28;19949;-87
2023/03/18 06:35:59;;;;;;;;;;;15.90;81.50;;;;;;5033793;28;20010;-87
2023/03/18 06:38:24;;;;;;;;;;;15.90;81.40;;;;;;5032554;28;19919;-87
2023/03/18 06:40:53;;;;;;;;;;;15.90;81.40;;;;;;5033100;28;19909;-87
2023/03/18 06:43:22;;;;;;;;;;;15.90;81.40;;;;;;5034241;28;19909;-88
2023/03/18 06:45:48;;;;;;;;;;;15.90;81.40;;;;;;5034845;28;20164;-87
2023/03/18 06:48:13;;;;;;;;;;;15.80;81.40;;;;;;5034560;28;19916;-87
2023/03/18 06:50:40;;;;;;;;;;;15.90;81.40;;;;;;5034206;28;19913;-87
2023/03/18 06:53:09;;;;;;;;;;;15.90;81.40;;;;;;5035540;28;19909;-88
2023/03/18 06:55:38;;;;;;;;;;;15.90;81.40;;;;;;5034910;28;19928;-87
2023/03/18 06:58:04;;;;;;;;;;;15.90;81.30;;;;;;5035026;28;19962;-87
2023/03/18 07:00:30;;;;;;;;;;;15.90;81.20;;;;;;5033799;28;19910;-87
2023/03/18 07:03:00;;;;;;;;;;;15.90;81.20;;;;;;5035177;28;19924;-87
2023/03/18 07:05:25;;;;;;;;;;;15.90;81.20;;;;;;5035054;28;19970;-87
2023/03/18 07:07:51;;;;;;;;;;;16.00;81.20;;;;;;5033894;28;19909;-88
2023/03/18 07:10:26;;;;;;;;;;;16.00;81.20;;;;;;5034452;28;20191;-87
2023/03/18 07:12:52;;;;;;;;;;;16.00;81.10;;;;;;5033982;28;19982;-87
2023/03/18 07:15:21;;;;;;;;;;;16.00;81.00;;;;;;5034371;28;19909;-87
2023/03/18 07:17:59;;;;;;;;;;;16.00;80.80;;;;;;5034422;28;19922;-87
2023/03/18 07:20:28;;;;;;;;;;;16.10;80.80;;;;;;5032879;28;19959;-88
2023/03/18 07:22:54;;;;;;;;;;;16.10;80.80;;;;;;5035814;28;19964;-87
2023/03/18 07:25:19;;;;;;;;;;;16.10;80.60;;;;;;5033877;28;19909;-87
2023/03/18 07:27:45;;;;;;;;;;;16.20;80.30;;;;;;5033165;28;19967;-87
2023/03/18 07:30:12;;;;;;;;;;;16.30;79.80;;;;;;5031847;28;20341;-87
2023/03/18 07:32:38;;;;;;;;;;;16.40;78.90;;;;;;5032718;28;19909;-87
2023/03/18 07:35:09;;;;;;;;;;;16.70;77.70;;;;;;5030683;28;19921;-87
2023/03/18 07:37:35;;;;;;;;;;;16.80;76.70;;;;;;5032321;28;20156;-88
2023/03/18 07:40:00;;;;;;;;;;;16.80;76.10;;;;;;5032282;28;19909;-87
2023/03/18 07:42:27;;;;;;;;;;;17.10;75.50;;;;;;5030303;28;20015;-87
2023/03/18 07:44:56;;;;;;;;;;;17.20;74.10;;;;;;5030789;28;19910;-87
2023/03/18 07:47:23;;;;;;;;;;;17.20;73.20;;;;;;5031908;28;19991;-87
2023/03/18 07:49:50;;;;;;;;;;;17.20;73.20;;;;;;5031032;28;20138;-87
2023/03/18 07:52:19;;;;;;;;;;;17.30;73.30;;;;;;5031492;28;19913;-87
2023/03/18 07:54:48;;;;;;;;;;;17.30;72.70;;;;;;5029449;28;19913;-87
2023/03/18 07:57:16;;;;;;;;;;;17.20;72.70;;;;;;5029322;28;19963;-87
2023/03/18 07:59:45;;;;;;;;;;;17.10;73.10;;;;;;5027637;28;19909;-87
2023/03/18 08:02:14;;;;;;;;;;;17.10;73.70;;;;;;5028727;28;19909;-87
2023/03/18 08:04:45;;;;;;;;;;;17.20;74.20;;;;;;5029769;28;19913;-87
2023/03/18 08:07:21;;;;;;;;;;;17.20;73.90;;;;;;5029129;28;20353;-86
2023/03/18 08:09:47;;;;;;;;;;;17.20;74.10;;;;;;5030720;28;19917;-87
2023/03/18 08:12:15;;;;;;;;;;;17.40;74.10;;;;;;5031276;28;19972;-87
2023/03/18 08:14:40;;;;;;;;;;;17.80;73.40;;;;;;5030506;28;19979;-87
2023/03/18 08:17:06;;;;;;;;;;;18.90;69.90;;;;;;5038393;28;19925;-87
2023/03/18 08:19:31;;;;;;;;;;;18.90;66.90;;;;;;5032020;28;19917;-86
2023/03/18 08:22:00;;;;;;;;;;;19.30;65.40;;;;;;5030980;28;19910;-87
2023/03/18 08:24:26;;;;;;;;;;;20.00;62.70;;;;;;5033233;28;19925;-87
2023/03/18 08:26:51;;;;;;;;;;;21.10;59.80;;;;;;5032429;28;20184;-87
2023/03/18 08:29:20;;;;;;;;;;;22.50;57.10;;;;;;5031577;28;19917;-88
2023/03/18 08:31:46;;;;;;;;;;;23.40;54.90;;;;;;5031119;28;19913;-87
2023/03/18 08:34:12;;;;;;;;;;;23.70;53.40;;;;;;5029917;28;20148;-87
2023/03/18 08:36:39;;;;;;;;;;;23.70;53.50;;;;;;5031423;28;19924;-87
2023/03/18 08:39:04;;;;;;;;;;;23.00;53.30;;;;;;5030630;28;20016;-87
2023/03/18 08:41:33;;;;;;;;;;;22.90;54.20;;;;;;5031513;28;20003;-87
2023/03/18 08:44:00;;;;;;;;;;;23.10;53.40;;;;;;5032045;28;19982;-88
2023/03/18 08:46:25;;;;;;;;;;;23.50;53.40;;;;;;5029957;28;19955;-88
2023/03/18 08:48:53;;;;;;;;;;;24.50;52.20;;;;;;5027721;28;19956;-87
2023/03/18 08:51:18;;;;;;;;;;;25.30;51.30;;;;;;5029381;28;19956;-87
2023/03/18 08:53:44;;;;;;;;;;;25.00;50.10;;;;;;5031091;28;19964;-88
2023/03/18 08:56:11;;;;;;;;;;;25.00;50.30;;;;;;5028978;28;19909;-87
2023/03/18 08:58:40;;;;;;;;;;;24.10;50.90;;;;;;5028676;28;19909;-87
2023/03/18 09:01:08;;;;;;;;;;;24.20;51.20;;;;;;5028400;28;19919;-87
2023/03/18 09:03:35;;;;;;;;;;;23.10;52.20;;;;;;5027689;28;19909;-88
2023/03/18 09:06:03;;;;;;;;;;;22.30;52.90;;;;;;5027191;28;19916;-88
2023/03/18 09:08:32;;;;;;;;;;;22.50;53.60;;;;;;5025831;28;19909;-88
2023/03/18 09:11:00;;;;;;;;;;;21.80;53.90;;;;;;5025926;28;19923;-87
2023/03/18 09:13:26;;;;;;;;;;;21.70;54.60;;;;;;5026918;28;19913;-87
2023/03/18 09:15:53;;;;;;;;;;;21.70;54.60;;;;;;5026585;28;19909;-87
2023/03/18 09:18:18;;;;;;;;;;;21.10;55.30;;;;;;5027466;28;20000;-87
2023/03/18 09:20:44;;;;;;;;;;;21.00;55.90;;;;;;5027279;28;20282;-87
2023/03/18 09:23:14;;;;;;;;;;;20.60;56.50;;;;;;5025471;28;19967;-87
2023/03/18 09:25:46;;;;;;;;;;;20.30;57.30;;;;;;5026097;28;20184;-87
2023/03/18 09:28:14;;;;;;;;;;;20.10;58.00;;;;;;5027163;28;19920;-87
2023/03/18 09:30:40;;;;;;;;;;;20.30;57.90;;;;;;5028018;28;19924;-87
2023/03/18 09:33:06;;;;;;;;;;;20.20;58.30;;;;;;5028983;28;20305;-87
2023/03/18 09:35:33;;;;;;;;;;;20.00;58.70;;;;;;5027904;28;19909;-87
2023/03/18 09:37:59;;;;;;;;;;;19.80;59.20;;;;;;5027627;28;19943;-87
2023/03/18 09:40:26;;;;;;;;;;;19.60;59.70;;;;;;5028427;28;19910;-87
2023/03/18 09:43:04;;;;;;;;;;;19.40;60.70;;;;;;5029110;28;20382;-88
2023/03/18 09:45:36;;;;;;;;;;;19.30;61.50;;;;;;5028002;28;20158;-87
2023/03/18 09:48:02;;;;;;;;;;;19.30;62.30;;;;;;5026875;28;20000;-87
2023/03/18 09:50:32;;;;;;;;;;;19.40;62.50;;;;;;5027610;28;20039;-87
2023/03/18 09:53:04;;;;;;;;;;;19.40;62.90;;;;;;5025533;28;19947;-87
2023/03/18 09:55:48;;;;;;;;;;;19.60;62.80;;;;;;5026952;28;19971;-87
2023/03/18 09:58:26;;;;;;;;;;;19.70;62.70;;;;;;5031841;28;20238;-87
2023/03/18 10:00:55;;;;;;;;;;;19.80;62.00;;;;;;5031821;28;19909;-87
2023/03/18 10:03:29;;;;;;;;;;;20.40;61.00;;;;;;5028908;28;20068;-87
2023/03/18 10:06:05;;;;;;;;;;;20.70;59.40;;;;;;5030638;28;19909;-87
2023/03/18 10:08:49;;;;;;;;;;;20.70;58.90;;;;;;5029848;28;19919;-88
2023/03/18 10:11:41;;;;;;;;;;;20.90;58.50;;;;;;5030902;28;19913;-88
2023/03/18 10:14:20;;;;;;;;;;;21.00;58.00;;;;;;5028155;28;19971;-87
2023/03/18 10:16:54;;;;;;;;;;;20.90;58.10;;;;;;5030100;28;20264;-88
2023/03/18 10:19:24;;;;;;;;;;;20.90;58.30;;;;;;5032184;28;19909;-88
2023/03/18 10:22:12;;;;;;;;;;;20.80;58.40;;;;;;5030886;28;19953;-88
2023/03/18 10:24:41;;;;;;;;;;;20.70;58.70;;;;;;5024969;28;19909;-88
2023/03/18 10:27:07;;;;;;;;;;;20.60;58.90;;;;;;5029845;28;19920;-88
2023/03/18 10:29:39;;;;;;;;;;;20.60;59.00;;;;;;5027106;28;19924;-88
2023/03/18 10:32:17;;;;;;;;;;;20.60;59.30;;;;;;5027709;28;19948;-88
2023/03/18 10:35:02;;;;;;;;;;;20.50;59.30;;;;;;5028080;28;19944;-88
2023/03/18 10:37:34;;;;;;;;;;;20.50;59.60;;;;;;5030084;28;19925;-88
2023/03/18 10:40:00;;;;;;;;;;;20.40;59.70;;;;;;5029333;28;20008;-88
2023/03/18 10:42:26;;;;;;;;;;;20.40;59.70;;;;;;5027455;28;19991;-88
2023/03/18 10:44:53;;;;;;;;;;;20.40;59.70;;;;;;5029464;28;20194;-88
2023/03/18 10:47:26;;;;;;;;;;;20.40;59.80;;;;;;5030920;28;20230;-87
2023/03/18 10:50:12;;;;;;;;;;;20.40;59.90;;;;;;5030719;28;19952;-88
2023/03/18 10:53:07;;;;;;;;;;;20.30;59.90;;;;;;5030759;28;19909;-88
2023/03/18 10:55:40;;;;;;;;;;;20.30;60.00;;;;;;4995440;28;19909;-88
2023/03/18 10:58:13;;;;;;;;;;;20.30;60.20;;;;;;5028338;28;19920;-88
2023/03/18 11:00:39;;;;;;;;;;;20.20;60.40;;;;;;5030561;28;20096;-87
2023/03/18 11:03:08;;;;;;;;;;;20.20;60.50;;;;;;5029434;28;19974;-87
2023/03/18 11:05:36;;;;;;;;;;;20.20;60.80;;;;;;5029955;28;20453;-87
2023/03/18 11:08:09;;;;;;;;;;;20.10;60.90;;;;;;5027595;28;19928;-87
2023/03/18 11:10:44;;;;;;;;;;;20.10;61.20;;;;;;5027608;28;19977;-88
2023/03/18 11:13:16;;;;;;;;;;;20.00;61.10;;;;;;5028393;28;19917;-87
2023/03/18 11:16:05;;;;;;;;;;;20.00;61.40;;;;;;5028801;28;19929;-88
2023/03/18 11:18:33;;;;;;;;;;;20.00;61.70;;;;;;5009894;28;19913;-88
2023/03/18 11:21:11;;;;;;;;;;;20.00;61.90;;;;;;5029464;28;20001;-88
2023/03/18 11:23:48;;;;;;;;;;;20.00;62.00;;;;;;5028098;28;19909;-87
2023/03/18 11:26:19;;;;;;;;;;;19.90;62.10;;;;;;5035537;28;20330;-88
2023/03/18 11:28:46;;;;;;;;;;;19.90;62.40;;;;;;5028023;28;20250;-88
2023/03/18 11:31:15;;;;;;;;;;;19.90;62.70;;;;;;5027192;28;19913;-88
2023/03/18 11:33:41;;;;;;;;;;;19.90;62.80;;;;;;5029501;28;20353;-87
2023/03/18 11:36:08;;;;;;;;;;;19.80;63.00;;;;;;5030149;28;19921;-87
2023/03/18 11:38:35;;;;;;;;;;;19.80;63.10;;;;;;5028404;28;19920;-87
2023/03/18 11:41:05;;;;;;;;;;;19.80;63.20;;;;;;5029030;28;20077;-87
2023/03/18 11:43:31;;;;;;;;;;;19.80;63.30;;;;;;5028626;28;20376;-88
2023/03/18 11:46:02;;;;;;;;;;;19.80;63.70;;;;;;5027015;28;19995;-88
2023/03/18 11:48:29;;;;;;;;;;;19.80;63.80;;;;;;5028621;28;19912;-88
2023/03/18 11:51:01;;;;;;;;;;;19.80;63.60;;;;;;5025369;28;19936;-88
2023/03/18 11:53:31;;;;;;;;;;;19.90;63.70;;;;;;5027737;28;20191;-88
2023/03/18 11:56:06;;;;;;;;;;;19.90;64.00;;;;;;5027120;28;20003;-87
2023/03/18 11:58:35;;;;;;;;;;;19.80;63.90;;;;;;5026552;28;19909;-87
2023/03/18 12:01:01;;;;;;;;;;;19.80;64.10;;;;;;5028494;28;19909;-88
2023/03/18 12:03:35;;;;;;;;;;;19.80;64.30;;;;;;5027629;28;20341;-87
2023/03/18 12:06:04;;;;;;;;;;;19.80;64.40;;;;;;5025383;28;19909;-87
2023/03/18 12:08:36;;;;;;;;;;;19.80;64.60;;;;;;5027138;28;19927;-87
2023/03/18 12:11:20;;;;;;;;;;;19.80;64.60;;;;;;5028120;28;19974;-87
2023/03/18 12:13:58;;;;;;;;;;;19.80;64.80;;;;;;5028521;28;19909;-87
2023/03/18 12:16:25;;;;;;;;;;;19.80;64.50;;;;;;5027354;28;19916;-87
2023/03/18 12:18:51;;;;;;;;;;;19.90;64.80;;;;;;5028481;28;19909;-87
2023/03/18 12:21:35;;;;;;;;;;;19.80;64.80;;;;;;5026634;28;20318;-87
2023/03/18 12:24:01;;;;;;;;;;;19.80;64.90;;;;;;5027068;28;19909;-87
2023/03/18 12:26:39;;;;;;;;;;;19.80;65.20;;;;;;5026606;28;20287;-87
2023/03/18 12:29:27;;;;;;;;;;;19.80;65.30;;;;;;5026430;28;19909;-87
2023/03/18 12:32:01;;;;;;;;;;;19.80;65.40;;;;;;5027170;28;19923;-87
2023/03/18 12:34:34;;;;;;;;;;;19.80;65.30;;;;;;5024264;28;19909;-87
2023/03/18 12:36:59;;;;;;;;;;;19.80;65.30;;;;;;5026561;28;19917;-87
2023/03/18 12:39:40;;;;;;;;;;;19.80;65.30;;;;;;5027320;28;20084;-87
2023/03/18 12:42:25;;;;;;;;;;;19.80;65.30;;;;;;5026129;28;20302;-87
2023/03/18 12:45:00;;;;;;;;;;;19.80;65.20;;;;;;5026329;28;19909;-87
2023/03/18 12:47:39;;;;;;;;;;;19.80;65.20;;;;;;5026806;28;19941;-87
2023/03/18 12:50:04;;;;;;;;;;;19.80;65.30;;;;;;5025413;28;20481;-87
2023/03/18 12:52:36;;;;;;;;;;;19.80;65.20;;;;;;5039800;28;20363;-87
2023/03/18 12:55:09;;;;;;;;;;;19.80;65.20;;;;;;5045589;28;20266;-87
2023/03/18 12:57:49;;;;;;;;;;;19.80;65.30;;;;;;5044830;28;20259;-87
2023/03/18 13:00:22;;;;;;;;;;;19.80;65.20;;;;;;5049068;28;20255;-88
2023/03/18 13:02:57;;;;;;;;;;;19.80;65.20;;;;;;5046542;28;19909;-87
2023/03/18 13:05:28;;;;;;;;;;;19.80;65.30;;;;;;5046377;28;19973;-87
2023/03/18 13:08:05;;;;;;;;;;;19.80;65.30;;;;;;5047275;28;19913;-87
2023/03/18 13:10:33;;;;;;;;;;;19.80;65.40;;;;;;5047253;28;19978;-87
2023/03/18 13:13:02;;;;;;;;;;;19.80;65.50;;;;;;5046497;28;19916;-87
2023/03/18 13:15:38;;;;;;;;;;;19.80;65.60;;;;;;5045940;28;19913;-87
2023/03/18 13:18:22;;;;;;;;;;;19.80;65.80;;;;;;5031961;28;20129;-87
2023/03/18 13:20:50;;;;;;;;;;;19.70;65.90;;;;;;5025597;28;19924;-87
2023/03/18 13:23:24;;;;;;;;;;;19.80;66.00;;;;;;5024974;28;19909;-87
2023/03/18 13:25:53;;;;;;;;;;;19.80;65.90;;;;;;5034491;28;20136;-87
2023/03/18 13:28:42;;;;;;;;;;;19.80;66.00;;;;;;5039696;28;20289;-87
2023/03/18 13:31:11;;;;;;;;;;;19.80;66.00;;;;;;5043527;28;19913;-87
2023/03/18 13:33:37;;;;;;;;;;;19.80;66.00;;;;;;5043739;28;19927;-87
2023/03/18 13:36:10;;;;;;;;;;;19.80;66.10;;;;;;5047267;28;20007;-87
2023/03/18 13:38:44;;;;;;;;;;;19.80;66.10;;;;;;5046113;28;19916;-87
2023/03/18 13:41:09;;;;;;;;;;;19.80;66.20;;;;;;5049226;28;19912;-87
2023/03/18 13:43:37;;;;;;;;;;;19.80;66.20;;;;;;5042579;28;20265;-87
2023/03/18 13:46:20;;;;;;;;;;;19.80;66.30;;;;;;5032632;28;19909;-87
2023/03/18 13:49:00;;;;;;;;;;;19.80;66.50;;;;;;5045398;28;20408;-87
2023/03/18 13:51:26;;;;;;;;;;;19.80;66.40;;;;;;5029867;28;19913;-87
2023/03/18 13:54:06;;;;;;;;;;;19.80;66.60;;;;;;5031682;28;20195;-87
2023/03/18 13:56:43;;;;;;;;;;;19.80;66.70;;;;;;5027371;28;19910;-87
2023/03/18 13:59:27;;;;;;;;;;;19.70;66.90;;;;;;5027897;28;20194;-87
2023/03/18 14:01:53;;;;;;;;;;;19.70;67.10;;;;;;5026552;28;20172;-87
2023/03/18 14:04:30;;;;;;;;;;;19.70;67.40;;;;;;5026960;28;20238;-87
2023/03/18 14:07:16;;;;;;;;;;;19.70;67.40;;;;;;5026688;28;19909;-87
2023/03/18 14:10:05;;;;;;;;;;;19.70;67.40;;;;;;5026460;28;19909;-86
2023/03/18 14:12:32;;;;;;;;;;;19.70;67.20;;;;;;5021114;28;19920;-87
2023/03/18 14:15:04;;;;;;;;;;;19.70;67.40;;;;;;5022663;28;20105;-87
2023/03/18 14:17:36;;;;;;;;;;;19.70;67.60;;;;;;5024374;28;19920;-87
2023/03/18 14:20:17;;;;;;;;;;;19.70;68.30;;;;;;5023505;28;20260;-87
2023/03/18 14:22:50;;;;;;;;;;;19.60;68.10;;;;;;5024478;28;19916;-87
2023/03/18 14:25:16;;;;;;;;;;;19.60;68.30;;;;;;5024786;28;19920;-86
2023/03/18 14:27:46;;;;;;;;;;;19.60;68.40;;;;;;5023314;28;19909;-87
2023/03/18 14:30:33;;;;;;;;;;;19.60;68.30;;;;;;5023196;28;19966;-87